N2RF UWUU-UWWW
Flight info
| Callsign | N2RF |
|---|---|
| Flight time | N/A |
| Altitude | 30000 |
| Route | GAPMA T759 NALUS |
| Aircraft | C700/M-SABDE1E2E3FGHJ4J7M3P2RWXYZ/LB2 |
Departure
| Time | 2026-04-24 16:41 |
|---|---|
| Airport | Ufa International Airport (UWUU) |
Arrival
| Time | N/A |
|---|---|
| Airport | Kurumoch International Airport (UWWW) |
| Time | Latitude | Longitude | Altitude | Speed | Heading |
|---|---|---|---|---|---|
| 2026-04-24 16:04 | 54.56263 | 55.88267 | 444 ft | 0 kts | 241° |
| 2026-04-24 16:24 | 54.56269 | 55.88284 | 430 ft | 2 kts | 240° |
| 2026-04-24 16:25 | 54.56277 | 55.88309 | 434 ft | 2 kts | 240° |
| 2026-04-24 16:25 | 54.56285 | 55.88334 | 439 ft | 2 kts | 251° |
| 2026-04-24 16:25 | 54.56284 | 55.88361 | 439 ft | 2 kts | 297° |
| 2026-04-24 16:26 | 54.56273 | 55.88386 | 435 ft | 0 kts | 323° |
| 2026-04-24 16:26 | 54.56274 | 55.88385 | 434 ft | 1 kts | 323° |
| 2026-04-24 16:27 | 54.56300 | 55.88359 | 441 ft | 9 kts | 330° |
| 2026-04-24 16:27 | 54.56364 | 55.88300 | 436 ft | 10 kts | 333° |
| 2026-04-24 16:27 | 54.56420 | 55.88227 | 441 ft | 10 kts | 290° |
| 2026-04-24 16:27 | 54.56413 | 55.88119 | 436 ft | 8 kts | 238° |
| 2026-04-24 16:28 | 54.56376 | 55.88032 | 444 ft | 10 kts | 237° |
| 2026-04-24 16:28 | 54.56345 | 55.87923 | 439 ft | 11 kts | 242° |
| 2026-04-24 16:28 | 54.56251 | 55.87648 | 444 ft | 16 kts | 239° |
| 2026-04-24 16:29 | 54.56192 | 55.87470 | 444 ft | 18 kts | 240° |
| 2026-04-24 16:29 | 54.56129 | 55.87274 | 444 ft | 16 kts | 240° |
| 2026-04-24 16:29 | 54.56002 | 55.86898 | 444 ft | 20 kts | 237° |
| 2026-04-24 16:30 | 54.55929 | 55.86667 | 444 ft | 6 kts | 240° |
| 2026-04-24 16:30 | 54.55902 | 55.86585 | 440 ft | 9 kts | 240° |
| 2026-04-24 16:30 | 54.55885 | 55.86532 | 445 ft | 1 kts | 240° |
| 2026-04-24 16:31 | 54.55887 | 55.86539 | 445 ft | 0 kts | 240° |
| 2026-04-24 16:39 | 54.55879 | 55.86514 | 445 ft | 7 kts | 240° |
| 2026-04-24 16:39 | 54.55849 | 55.86405 | 437 ft | 7 kts | 246° |
| 2026-04-24 16:40 | 54.55825 | 55.86373 | 440 ft | 0 kts | 180° |
| 2026-04-24 16:40 | 54.55824 | 55.86373 | 440 ft | 1 kts | 176° |
| 2026-04-24 16:40 | 54.55652 | 55.86535 | 444 ft | 70 kts | 151° |
| 2026-04-24 16:40 | 54.54975 | 55.87187 | 476 ft | 148 kts | 151° |
| 2026-04-24 16:41 | 54.53960 | 55.88186 | 1070 ft | 186 kts | 152° |
| 2026-04-24 16:41 | 54.52718 | 55.89287 | 1941 ft | 220 kts | 153° |
| 2026-04-24 16:41 | 54.51608 | 55.91499 | 2713 ft | 273 kts | 117° |
| 2026-04-24 16:41 | 54.51391 | 55.94660 | 3330 ft | 281 kts | 79° |
| 2026-04-24 16:42 | 54.52356 | 55.97628 | 4047 ft | 278 kts | 42° |
| 2026-04-24 16:42 | 54.54049 | 55.99380 | 4803 ft | 308 kts | 22° |
| 2026-04-24 16:42 | 54.56024 | 56.01140 | 5753 ft | 308 kts | 30° |
| 2026-04-24 16:42 | 54.57590 | 56.03234 | 6403 ft | 269 kts | 44° |
| 2026-04-24 16:43 | 54.58958 | 56.05393 | 6910 ft | 266 kts | 31° |
| 2026-04-24 16:43 | 54.60612 | 56.06698 | 7423 ft | 261 kts | 13° |
| 2026-04-24 16:43 | 54.62400 | 56.07112 | 7945 ft | 258 kts | 355° |
| 2026-04-24 16:43 | 54.64165 | 56.06612 | 8480 ft | 256 kts | 338° |
| 2026-04-24 16:44 | 54.65751 | 56.05276 | 9035 ft | 253 kts | 321° |
| 2026-04-24 16:44 | 54.67042 | 56.03239 | 9603 ft | 251 kts | 305° |
| 2026-04-24 16:44 | 54.67934 | 56.00725 | 10114 ft | 248 kts | 290° |
| 2026-04-24 16:44 | 54.68397 | 55.97853 | 10658 ft | 257 kts | 274° |
| 2026-04-24 16:45 | 54.68361 | 55.94589 | 11367 ft | 283 kts | 258° |
| 2026-04-24 16:45 | 54.67707 | 55.91327 | 12191 ft | 295 kts | 242° |
| 2026-04-24 16:45 | 54.66701 | 55.88199 | 13102 ft | 302 kts | 240° |
| 2026-04-24 16:45 | 54.65669 | 55.85014 | 13990 ft | 306 kts | 240° |
| 2026-04-24 16:46 | 54.64626 | 55.81784 | 14858 ft | 309 kts | 240° |
| 2026-04-24 16:46 | 54.63571 | 55.78520 | 15757 ft | 313 kts | 240° |
| 2026-04-24 16:46 | 54.62516 | 55.75267 | 16680 ft | 317 kts | 240° |
| 2026-04-24 16:46 | 54.61435 | 55.71936 | 17653 ft | 320 kts | 240° |
| 2026-04-24 16:47 | 54.60339 | 55.68558 | 18585 ft | 325 kts | 240° |
| 2026-04-24 16:47 | 54.59227 | 55.65138 | 19497 ft | 329 kts | 240° |
| 2026-04-24 16:47 | 54.58098 | 55.61674 | 20446 ft | 333 kts | 240° |
| 2026-04-24 16:47 | 54.56957 | 55.58175 | 21439 ft | 337 kts | 240° |
| 2026-04-24 16:48 | 54.55808 | 55.54655 | 22461 ft | 339 kts | 240° |
| 2026-04-24 16:48 | 54.54645 | 55.51099 | 23477 ft | 340 kts | 240° |
| 2026-04-24 16:48 | 54.53483 | 55.47554 | 24362 ft | 341 kts | 240° |
| 2026-04-24 16:48 | 54.52330 | 55.44041 | 25253 ft | 341 kts | 240° |
| 2026-04-24 16:49 | 54.51160 | 55.40480 | 26170 ft | 342 kts | 240° |
| 2026-04-24 16:49 | 54.49990 | 55.36924 | 27097 ft | 342 kts | 240° |
| 2026-04-24 16:49 | 54.48818 | 55.33367 | 28038 ft | 342 kts | 240° |
| 2026-04-24 16:49 | 54.47645 | 55.29815 | 28990 ft | 342 kts | 240° |
| 2026-04-24 16:50 | 54.46867 | 55.27459 | 29608 ft | 342 kts | 240° |
| 2026-04-24 16:50 | 54.45226 | 55.22501 | 29722 ft | 372 kts | 240° |
| 2026-04-24 16:50 | 54.43908 | 55.18525 | 29740 ft | 394 kts | 240° |
| 2026-04-24 16:50 | 54.42514 | 55.14325 | 29736 ft | 416 kts | 240° |
| 2026-04-24 16:51 | 54.41041 | 55.09900 | 29739 ft | 436 kts | 240° |
| 2026-04-24 16:51 | 54.39504 | 55.05288 | 29739 ft | 453 kts | 240° |
| 2026-04-24 16:51 | 54.36330 | 54.95795 | 29736 ft | 461 kts | 240° |
| 2026-04-24 16:52 | 54.33148 | 54.86312 | 29731 ft | 463 kts | 240° |
| 2026-04-24 16:52 | 54.29932 | 54.76768 | 29727 ft | 456 kts | 240° |
| 2026-04-24 16:53 | 54.28393 | 54.72212 | 29714 ft | 430 kts | 240° |
| 2026-04-24 16:53 | 54.26922 | 54.67868 | 29707 ft | 417 kts | 240° |
| 2026-04-24 16:53 | 54.24008 | 54.59280 | 29710 ft | 417 kts | 240° |
| 2026-04-24 16:54 | 54.21496 | 54.50356 | 29708 ft | 418 kts | 248° |
| 2026-04-24 16:54 | 54.19269 | 54.41221 | 29711 ft | 406 kts | 247° |
| 2026-04-24 16:55 | 54.17145 | 54.32476 | 29701 ft | 397 kts | 248° |
| 2026-04-24 16:55 | 54.15018 | 54.23785 | 29701 ft | 397 kts | 247° |
| 2026-04-24 16:56 | 54.12902 | 54.15197 | 29706 ft | 398 kts | 248° |
| 2026-04-24 16:56 | 54.10756 | 54.06502 | 29698 ft | 398 kts | 248° |
| 2026-04-24 16:57 | 54.08620 | 53.97891 | 29696 ft | 399 kts | 248° |
| 2026-04-24 16:57 | 54.06430 | 53.89094 | 29693 ft | 400 kts | 247° |
| 2026-04-24 16:58 | 54.04270 | 53.80453 | 29689 ft | 396 kts | 248° |
| 2026-04-24 16:58 | 54.02152 | 53.72017 | 29681 ft | 366 kts | 248° |
| 2026-04-24 16:59 | 54.01182 | 53.68165 | 29683 ft | 344 kts | 248° |
| 2026-04-24 16:59 | 54.00259 | 53.64502 | 29682 ft | 332 kts | 248° |
| 2026-04-24 16:59 | 53.99645 | 53.56821 | 29702 ft | 342 kts | 285° |
| 2026-04-24 17:00 | 54.00731 | 53.53217 | 29708 ft | 347 kts | 308° |
| 2026-04-24 17:00 | 54.04966 | 53.49661 | 29707 ft | 359 kts | 357° |
| 2026-04-24 17:00 | 54.07421 | 53.50475 | 29704 ft | 366 kts | 23° |
| 2026-04-24 17:01 | 54.10777 | 53.56788 | 29693 ft | 365 kts | 64° |
| 2026-04-24 17:01 | 54.11750 | 53.60810 | 29704 ft | 371 kts | 68° |
| 2026-04-24 17:02 | 54.14733 | 53.73039 | 29696 ft | 376 kts | 70° |
| 2026-04-24 17:02 | 54.15110 | 53.77418 | 29705 ft | 376 kts | 96° |
| 2026-04-24 17:02 | 54.14362 | 53.81642 | 29713 ft | 374 kts | 122° |
| 2026-04-24 17:03 | 54.10151 | 53.86681 | 29722 ft | 395 kts | 173° |
| 2026-04-24 17:03 | 54.07376 | 53.86586 | 29724 ft | 410 kts | 196° |
| 2026-04-24 17:03 | 54.04745 | 53.84569 | 29727 ft | 424 kts | 218° |
| 2026-04-24 17:04 | 54.02693 | 53.80888 | 29719 ft | 437 kts | 239° |
| 2026-04-24 17:04 | 54.00735 | 53.71039 | 29705 ft | 449 kts | 258° |
| 2026-04-24 17:04 | 54.00112 | 53.65775 | 29707 ft | 455 kts | 258° |
| 2026-04-24 17:05 | 53.98131 | 53.55548 | 29699 ft | 458 kts | 246° |
| 2026-04-24 17:06 | 53.94231 | 53.40719 | 29692 ft | 459 kts | 248° |
| 2026-04-24 17:06 | 53.90442 | 53.25880 | 29685 ft | 459 kts | 246° |
| 2026-04-24 17:07 | 53.87931 | 53.15947 | 29675 ft | 459 kts | 247° |
| 2026-04-24 17:07 | 53.85388 | 53.06142 | 29476 ft | 445 kts | 246° |
| 2026-04-24 17:08 | 53.83039 | 52.96652 | 28335 ft | 431 kts | 252° |
| 2026-04-24 17:08 | 53.82333 | 52.91735 | 27766 ft | 430 kts | 260° |
| 2026-04-24 17:08 | 53.81837 | 52.86735 | 27195 ft | 432 kts | 260° |
| 2026-04-24 17:09 | 53.80800 | 52.76781 | 26057 ft | 432 kts | 259° |
| 2026-04-24 17:09 | 53.79782 | 52.66922 | 24923 ft | 430 kts | 259° |
| 2026-04-24 17:10 | 53.79262 | 52.61939 | 24361 ft | 430 kts | 259° |
| 2026-04-24 17:10 | 53.77694 | 52.47074 | 22614 ft | 412 kts | 259° |
| 2026-04-24 17:11 | 53.76252 | 52.33579 | 21064 ft | 380 kts | 258° |
| 2026-04-24 17:12 | 53.73940 | 52.12203 | 18610 ft | 356 kts | 258° |